Main page
METAR-TAF:

METAR-TAF

Airports :

Lea County Regional Airport

Hobbs, New Mexico, United States

latitude: 32-41N, longitude: 103-13W, elevation: 3657 ft

Current weather observation

The report was made 14 minutes ago, at 09:15 UTC
Wind 5 mph from the South
Temperature 72°F
Humidity 69%
Pressure 30.14 in. Hg
Visibility: 10 miles
Clear sky

METAR: KHOB 170915Z AUTO 19004KT 10SM CLR 22/16 A3014 RMK AO2

Time: 03:29 (09:29 UTC)

Forecast

The report was made 4 hours and 9 minutes ago, at 05:20 UTC
Forecast valid from 17 at 06 UTC to 18 at 06 UTC
Wind 13 mph from the East/Southeast
Visibility: 6 miles
Few clouds at a height of 8000 ft
Scattered clouds at a height of 25000 ft

TAF: KHOB 170520Z 1706/1806 12011KT P6SM FEW080 SCT250

Weather observations and forecasts of more than 4000 airports (METAR and TAF reports).

The available stations are represented by yellow and red dots on the map.

Hover mouse over dot to see the name of the station.

Then click to see weather observations and forecasts.

To change the map : click on the green buttons with a black cross to zoom in, on the green button with a dash to zoom out, or on the green arrows for adjacent maps.


METAR-TAF: